sensor_id;sensor_type;location;lat;lon;timestamp;temperature;humidity
22065;DHT22;11197;53.110;8.468;2024-02-23T00:00:59;8.50;99.90
22065;DHT22;11197;53.110;8.468;2024-02-23T00:03:25;8.50;99.90
22065;DHT22;11197;53.110;8.468;2024-02-23T00:05:51;8.50;99.90
22065;DHT22;11197;53.110;8.468;2024-02-23T00:08:17;8.50;99.90
22065;DHT22;11197;53.110;8.468;2024-02-23T00:10:44;8.40;99.90
22065;DHT22;11197;53.110;8.468;2024-02-23T00:13:10;8.40;99.90
22065;DHT22;11197;53.110;8.468;2024-02-23T00:15:36;8.30;99.90
22065;DHT22;11197;53.110;8.468;2024-02-23T00:18:01;8.30;99.90
22065;DHT22;11197;53.110;8.468;2024-02-23T00:20:29;8.30;99.90
22065;DHT22;11197;53.110;8.468;2024-02-23T00:22:55;8.30;99.90
22065;DHT22;11197;53.110;8.468;2024-02-23T00:25:21;8.40;99.90
22065;DHT22;11197;53.110;8.468;2024-02-23T00:27:48;8.40;99.90
22065;DHT22;11197;53.110;8.468;2024-02-23T00:30:14;8.30;99.90
22065;DHT22;11197;53.110;8.468;2024-02-23T00:32:40;8.30;99.90
22065;DHT22;11197;53.110;8.468;2024-02-23T00:35:06;8.20;99.90
22065;DHT22;11197;53.110;8.468;2024-02-23T00:37:32;8.20;99.90
22065;DHT22;11197;53.110;8.468;2024-02-23T00:40:04;8.30;99.90
22065;DHT22;11197;53.110;8.468;2024-02-23T00:42:30;8.20;99.90
22065;DHT22;11197;53.110;8.468;2024-02-23T00:44:56;8.00;99.90
22065;DHT22;11197;53.110;8.468;2024-02-23T00:47:22;8.00;99.90
22065;DHT22;11197;53.110;8.468;2024-02-23T00:49:48;8.00;99.90
22065;DHT22;11197;53.110;8.468;2024-02-23T00:52:14;8.00;99.90
22065;DHT22;11197;53.110;8.468;2024-02-23T00:54:40;7.90;99.90
22065;DHT22;11197;53.110;8.468;2024-02-23T00:57:06;7.90;99.90
22065;DHT22;11197;53.110;8.468;2024-02-23T00:59:31;7.90;99.90
22065;DHT22;11197;53.110;8.468;2024-02-23T01:01:57;7.80;99.90
22065;DHT22;11197;53.110;8.468;2024-02-23T01:04:23;7.70;99.90
22065;DHT22;11197;53.110;8.468;2024-02-23T01:06:49;7.70;99.90
22065;DHT22;11197;53.110;8.468;2024-02-23T01:09:15;7.40;99.90
22065;DHT22;11197;53.110;8.468;2024-02-23T01:11:42;7.40;99.90
22065;DHT22;11197;53.110;8.468;2024-02-23T01:14:08;7.40;99.90
22065;DHT22;11197;53.110;8.468;2024-02-23T01:16:33;7.50;99.90
22065;DHT22;11197;53.110;8.468;2024-02-23T01:18:59;7.40;99.90
22065;DHT22;11197;53.110;8.468;2024-02-23T01:21:25;7.40;99.90
22065;DHT22;11197;53.110;8.468;2024-02-23T01:23:50;7.30;99.90
22065;DHT22;11197;53.110;8.468;2024-02-23T01:26:16;7.30;99.90
22065;DHT22;11197;53.110;8.468;2024-02-23T01:28:42;7.30;99.90
22065;DHT22;11197;53.110;8.468;2024-02-23T01:31:11;7.20;99.90
22065;DHT22;11197;53.110;8.468;2024-02-23T01:33:38;7.10;99.90
22065;DHT22;11197;53.110;8.468;2024-02-23T01:36:07;7.00;99.90
22065;DHT22;11197;53.110;8.468;2024-02-23T01:38:34;7.10;99.90
22065;DHT22;11197;53.110;8.468;2024-02-23T01:41:00;7.00;99.90
22065;DHT22;11197;53.110;8.468;2024-02-23T01:43:25;7.00;99.90
22065;DHT22;11197;53.110;8.468;2024-02-23T01:45:51;7.00;99.90
22065;DHT22;11197;53.110;8.468;2024-02-23T01:48:18;6.90;99.90
22065;DHT22;11197;53.110;8.468;2024-02-23T01:50:44;6.90;99.90
22065;DHT22;11197;53.110;8.468;2024-02-23T01:53:12;6.90;99.90
22065;DHT22;11197;53.110;8.468;2024-02-23T01:55:41;6.90;99.90
22065;DHT22;11197;53.110;8.468;2024-02-23T01:58:07;6.80;99.90
22065;DHT22;11197;53.110;8.468;2024-02-23T02:00:34;6.80;99.90
22065;DHT22;11197;53.110;8.468;2024-02-23T02:03:00;6.90;99.90
22065;DHT22;11197;53.110;8.468;2024-02-23T02:05:26;6.80;99.90
22065;DHT22;11197;53.110;8.468;2024-02-23T02:07:53;6.70;99.90
22065;DHT22;11197;53.110;8.468;2024-02-23T02:10:24;6.70;99.90
22065;DHT22;11197;53.110;8.468;2024-02-23T02:12:50;6.60;99.90
22065;DHT22;11197;53.110;8.468;2024-02-23T02:15:16;6.60;99.90
22065;DHT22;11197;53.110;8.468;2024-02-23T02:17:41;6.50;99.90
22065;DHT22;11197;53.110;8.468;2024-02-23T02:20:11;6.40;99.90
22065;DHT22;11197;53.110;8.468;2024-02-23T02:22:37;6.30;99.90
22065;DHT22;11197;53.110;8.468;2024-02-23T02:25:04;6.30;99.90
22065;DHT22;11197;53.110;8.468;2024-02-23T02:27:29;6.40;99.90
22065;DHT22;11197;53.110;8.468;2024-02-23T02:29:55;6.30;99.90
22065;DHT22;11197;53.110;8.468;2024-02-23T02:32:21;6.20;99.90
22065;DHT22;11197;53.110;8.468;2024-02-23T02:34:47;6.20;99.90
22065;DHT22;11197;53.110;8.468;2024-02-23T02:37:12;6.10;99.90
22065;DHT22;11197;53.110;8.468;2024-02-23T02:39:38;6.10;99.90
22065;DHT22;11197;53.110;8.468;2024-02-23T02:42:04;6.20;99.90
22065;DHT22;11197;53.110;8.468;2024-02-23T02:44:30;6.20;99.90
22065;DHT22;11197;53.110;8.468;2024-02-23T02:47:00;6.10;99.90
22065;DHT22;11197;53.110;8.468;2024-02-23T02:49:25;6.00;99.90
22065;DHT22;11197;53.110;8.468;2024-02-23T02:51:51;6.00;99.90
22065;DHT22;11197;53.110;8.468;2024-02-23T02:54:17;6.00;99.90
22065;DHT22;11197;53.110;8.468;2024-02-23T02:56:44;5.90;99.90
22065;DHT22;11197;53.110;8.468;2024-02-23T02:59:12;6.00;99.90
22065;DHT22;11197;53.110;8.468;2024-02-23T03:01:37;6.00;99.90
22065;DHT22;11197;53.110;8.468;2024-02-23T03:04:03;6.10;99.90
22065;DHT22;11197;53.110;8.468;2024-02-23T03:06:29;6.00;99.90
22065;DHT22;11197;53.110;8.468;2024-02-23T03:08:55;6.10;99.90
22065;DHT22;11197;53.110;8.468;2024-02-23T03:11:20;6.10;99.90
22065;DHT22;11197;53.110;8.468;2024-02-23T03:13:46;6.10;99.90
22065;DHT22;11197;53.110;8.468;2024-02-23T03:16:18;6.20;99.90
22065;DHT22;11197;53.110;8.468;2024-02-23T03:18:44;6.20;99.90
22065;DHT22;11197;53.110;8.468;2024-02-23T03:21:10;6.20;99.90
22065;DHT22;11197;53.110;8.468;2024-02-23T03:23:36;6.10;99.90
22065;DHT22;11197;53.110;8.468;2024-02-23T03:26:02;6.10;99.90
22065;DHT22;11197;53.110;8.468;2024-02-23T03:28:28;6.10;99.90
22065;DHT22;11197;53.110;8.468;2024-02-23T03:30:54;6.10;99.90
22065;DHT22;11197;53.110;8.468;2024-02-23T03:33:19;6.10;99.90
22065;DHT22;11197;53.110;8.468;2024-02-23T03:35:45;6.00;99.90
22065;DHT22;11197;53.110;8.468;2024-02-23T03:38:11;6.00;99.90
22065;DHT22;11197;53.110;8.468;2024-02-23T03:40:38;6.00;99.90
22065;DHT22;11197;53.110;8.468;2024-02-23T03:43:04;5.90;99.90
22065;DHT22;11197;53.110;8.468;2024-02-23T03:45:31;5.90;99.90
22065;DHT22;11197;53.110;8.468;2024-02-23T03:47:57;5.90;99.90
22065;DHT22;11197;53.110;8.468;2024-02-23T03:50:23;5.90;99.90
22065;DHT22;11197;53.110;8.468;2024-02-23T03:52:49;5.80;99.90
22065;DHT22;11197;53.110;8.468;2024-02-23T03:55:15;5.90;99.90
22065;DHT22;11197;53.110;8.468;2024-02-23T03:57:40;5.90;99.90
22065;DHT22;11197;53.110;8.468;2024-02-23T04:00:06;5.90;99.90
22065;DHT22;11197;53.110;8.468;2024-02-23T04:02:41;5.90;99.90
22065;DHT22;11197;53.110;8.468;2024-02-23T04:05:07;5.90;99.90
22065;DHT22;11197;53.110;8.468;2024-02-23T04:07:33;5.90;99.90
22065;DHT22;11197;53.110;8.468;2024-02-23T04:09:58;5.90;99.90
22065;DHT22;11197;53.110;8.468;2024-02-23T04:12:24;5.90;99.90
22065;DHT22;11197;53.110;8.468;2024-02-23T04:14:50;6.00;99.90
22065;DHT22;11197;53.110;8.468;2024-02-23T04:17:16;6.00;99.90
22065;DHT22;11197;53.110;8.468;2024-02-23T04:19:42;6.00;99.90
22065;DHT22;11197;53.110;8.468;2024-02-23T04:22:09;6.10;99.90
22065;DHT22;11197;53.110;8.468;2024-02-23T04:24:39;6.00;99.90
22065;DHT22;11197;53.110;8.468;2024-02-23T04:27:06;6.00;99.90
22065;DHT22;11197;53.110;8.468;2024-02-23T04:29:32;5.90;99.90
22065;DHT22;11197;53.110;8.468;2024-02-23T04:32:01;5.90;99.90
22065;DHT22;11197;53.110;8.468;2024-02-23T04:34:27;5.90;99.90
22065;DHT22;11197;53.110;8.468;2024-02-23T04:36:53;5.90;99.90
22065;DHT22;11197;53.110;8.468;2024-02-23T04:39:20;5.90;99.90
22065;DHT22;11197;53.110;8.468;2024-02-23T04:41:45;5.80;99.90
22065;DHT22;11197;53.110;8.468;2024-02-23T04:44:11;5.80;99.90
22065;DHT22;11197;53.110;8.468;2024-02-23T04:46:37;5.80;99.90
22065;DHT22;11197;53.110;8.468;2024-02-23T04:49:02;5.80;99.90
22065;DHT22;11197;53.110;8.468;2024-02-23T04:51:28;5.80;99.90
22065;DHT22;11197;53.110;8.468;2024-02-23T04:53:54;5.80;99.90
22065;DHT22;11197;53.110;8.468;2024-02-23T04:56:20;5.80;99.90
22065;DHT22;11197;53.110;8.468;2024-02-23T04:58:46;5.80;99.90
22065;DHT22;11197;53.110;8.468;2024-02-23T05:01:12;5.80;99.90
22065;DHT22;11197;53.110;8.468;2024-02-23T05:03:38;5.80;99.90
22065;DHT22;11197;53.110;8.468;2024-02-23T05:06:04;5.70;99.90
22065;DHT22;11197;53.110;8.468;2024-02-23T05:08:30;5.70;99.90
22065;DHT22;11197;53.110;8.468;2024-02-23T05:10:57;5.70;99.90
22065;DHT22;11197;53.110;8.468;2024-02-23T05:13:23;5.60;99.90
22065;DHT22;11197;53.110;8.468;2024-02-23T05:15:49;5.60;99.90
22065;DHT22;11197;53.110;8.468;2024-02-23T05:18:15;5.70;99.90
22065;DHT22;11197;53.110;8.468;2024-02-23T05:20:40;5.70;99.90
22065;DHT22;11197;53.110;8.468;2024-02-23T05:23:06;5.70;99.90
22065;DHT22;11197;53.110;8.468;2024-02-23T05:25:33;5.60;99.90
22065;DHT22;11197;53.110;8.468;2024-02-23T05:27:59;5.60;99.90
22065;DHT22;11197;53.110;8.468;2024-02-23T05:30:24;5.60;99.90
22065;DHT22;11197;53.110;8.468;2024-02-23T05:32:52;5.50;99.90
22065;DHT22;11197;53.110;8.468;2024-02-23T05:35:18;5.50;99.90
22065;DHT22;11197;53.110;8.468;2024-02-23T05:37:44;5.50;99.90
22065;DHT22;11197;53.110;8.468;2024-02-23T05:40:10;5.50;99.90
22065;DHT22;11197;53.110;8.468;2024-02-23T05:42:36;5.50;99.90
22065;DHT22;11197;53.110;8.468;2024-02-23T05:45:02;5.50;99.90
22065;DHT22;11197;53.110;8.468;2024-02-23T05:47:30;5.50;99.90
22065;DHT22;11197;53.110;8.468;2024-02-23T05:49:56;5.50;99.90
22065;DHT22;11197;53.110;8.468;2024-02-23T05:52:22;5.50;99.90
22065;DHT22;11197;53.110;8.468;2024-02-23T05:54:48;5.50;99.90
22065;DHT22;11197;53.110;8.468;2024-02-23T05:57:14;5.60;99.90
22065;DHT22;11197;53.110;8.468;2024-02-23T05:59:39;5.60;99.90
22065;DHT22;11197;53.110;8.468;2024-02-23T06:02:05;5.60;99.90
22065;DHT22;11197;53.110;8.468;2024-02-23T06:04:31;5.70;99.90
22065;DHT22;11197;53.110;8.468;2024-02-23T06:06:57;5.70;99.90
22065;DHT22;11197;53.110;8.468;2024-02-23T06:09:23;5.70;99.90
22065;DHT22;11197;53.110;8.468;2024-02-23T06:11:48;5.60;99.90
22065;DHT22;11197;53.110;8.468;2024-02-23T06:14:14;5.50;99.90
22065;DHT22;11197;53.110;8.468;2024-02-23T06:16:40;5.50;99.90
22065;DHT22;11197;53.110;8.468;2024-02-23T06:19:06;5.50;99.90
22065;DHT22;11197;53.110;8.468;2024-02-23T06:21:31;5.50;99.90
22065;DHT22;11197;53.110;8.468;2024-02-23T06:23:58;5.50;99.90
22065;DHT22;11197;53.110;8.468;2024-02-23T06:26:24;5.50;99.90
22065;DHT22;11197;53.110;8.468;2024-02-23T06:28:49;5.50;99.90
22065;DHT22;11197;53.110;8.468;2024-02-23T06:31:15;5.40;99.90
22065;DHT22;11197;53.110;8.468;2024-02-23T06:33:41;5.30;99.90
22065;DHT22;11197;53.110;8.468;2024-02-23T06:36:07;5.30;99.90
22065;DHT22;11197;53.110;8.468;2024-02-23T06:38:34;5.30;99.90
22065;DHT22;11197;53.110;8.468;2024-02-23T06:40:59;5.30;99.90
22065;DHT22;11197;53.110;8.468;2024-02-23T06:43:25;5.30;99.90
22065;DHT22;11197;53.110;8.468;2024-02-23T06:45:51;5.30;99.90
22065;DHT22;11197;53.110;8.468;2024-02-23T06:48:18;5.30;99.90
22065;DHT22;11197;53.110;8.468;2024-02-23T06:50:43;5.40;99.90
22065;DHT22;11197;53.110;8.468;2024-02-23T06:53:09;5.40;99.90
22065;DHT22;11197;53.110;8.468;2024-02-23T06:55:35;5.40;99.90
22065;DHT22;11197;53.110;8.468;2024-02-23T06:58:02;5.40;99.90
22065;DHT22;11197;53.110;8.468;2024-02-23T07:00:27;5.40;99.90
22065;DHT22;11197;53.110;8.468;2024-02-23T07:02:53;5.40;99.90
22065;DHT22;11197;53.110;8.468;2024-02-23T07:05:19;5.50;99.90
22065;DHT22;11197;53.110;8.468;2024-02-23T07:07:45;5.40;99.90
22065;DHT22;11197;53.110;8.468;2024-02-23T07:10:11;5.50;99.90
22065;DHT22;11197;53.110;8.468;2024-02-23T07:12:37;5.50;99.90
22065;DHT22;11197;53.110;8.468;2024-02-23T07:15:03;5.50;99.90
22065;DHT22;11197;53.110;8.468;2024-02-23T07:17:29;5.50;99.90
22065;DHT22;11197;53.110;8.468;2024-02-23T07:19:55;5.60;99.90
22065;DHT22;11197;53.110;8.468;2024-02-23T07:22:28;5.50;99.90
22065;DHT22;11197;53.110;8.468;2024-02-23T07:24:54;5.60;99.90
22065;DHT22;11197;53.110;8.468;2024-02-23T07:27:20;5.60;99.90
22065;DHT22;11197;53.110;8.468;2024-02-23T07:29:45;5.60;99.90
22065;DHT22;11197;53.110;8.468;2024-02-23T07:32:11;5.60;99.90
22065;DHT22;11197;53.110;8.468;2024-02-23T07:34:37;5.60;99.90
22065;DHT22;11197;53.110;8.468;2024-02-23T07:37:03;5.60;99.90
22065;DHT22;11197;53.110;8.468;2024-02-23T07:39:29;5.70;99.90
22065;DHT22;11197;53.110;8.468;2024-02-23T07:41:55;5.70;99.90
22065;DHT22;11197;53.110;8.468;2024-02-23T07:44:20;5.70;99.90
22065;DHT22;11197;53.110;8.468;2024-02-23T07:46:46;5.70;99.90
22065;DHT22;11197;53.110;8.468;2024-02-23T07:49:12;5.80;99.90
22065;DHT22;11197;53.110;8.468;2024-02-23T07:51:38;5.80;99.90
22065;DHT22;11197;53.110;8.468;2024-02-23T07:54:08;5.80;99.90
22065;DHT22;11197;53.110;8.468;2024-02-23T07:56:42;5.90;99.90
22065;DHT22;11197;53.110;8.468;2024-02-23T07:59:07;5.90;99.90
22065;DHT22;11197;53.110;8.468;2024-02-23T08:01:33;5.90;99.90
22065;DHT22;11197;53.110;8.468;2024-02-23T08:03:59;5.90;99.90
22065;DHT22;11197;53.110;8.468;2024-02-23T08:06:25;5.90;99.90
22065;DHT22;11197;53.110;8.468;2024-02-23T08:08:51;5.90;99.90
22065;DHT22;11197;53.110;8.468;2024-02-23T08:11:19;6.00;99.90
22065;DHT22;11197;53.110;8.468;2024-02-23T08:13:45;6.00;99.90
22065;DHT22;11197;53.110;8.468;2024-02-23T08:16:10;6.10;99.90
22065;DHT22;11197;53.110;8.468;2024-02-23T08:18:36;6.10;99.90
22065;DHT22;11197;53.110;8.468;2024-02-23T08:21:02;6.10;99.90
22065;DHT22;11197;53.110;8.468;2024-02-23T08:23:29;6.10;99.90
22065;DHT22;11197;53.110;8.468;2024-02-23T08:25:55;6.10;99.90
22065;DHT22;11197;53.110;8.468;2024-02-23T08:28:23;6.20;99.90
22065;DHT22;11197;53.110;8.468;2024-02-23T08:30:48;6.20;99.90
22065;DHT22;11197;53.110;8.468;2024-02-23T08:33:14;6.20;99.90
22065;DHT22;11197;53.110;8.468;2024-02-23T08:35:40;6.20;99.90
22065;DHT22;11197;53.110;8.468;2024-02-23T08:38:06;6.30;99.90
22065;DHT22;11197;53.110;8.468;2024-02-23T08:40:32;6.30;99.90
22065;DHT22;11197;53.110;8.468;2024-02-23T08:42:58;6.40;99.90
22065;DHT22;11197;53.110;8.468;2024-02-23T08:45:24;6.40;99.90
22065;DHT22;11197;53.110;8.468;2024-02-23T08:47:49;6.40;99.90
22065;DHT22;11197;53.110;8.468;2024-02-23T08:50:15;6.40;99.90
22065;DHT22;11197;53.110;8.468;2024-02-23T08:52:41;6.50;99.90
22065;DHT22;11197;53.110;8.468;2024-02-23T08:55:07;6.50;99.90
22065;DHT22;11197;53.110;8.468;2024-02-23T08:57:33;6.50;99.90
22065;DHT22;11197;53.110;8.468;2024-02-23T08:59:59;6.50;99.90
22065;DHT22;11197;53.110;8.468;2024-02-23T09:02:25;6.50;99.90
22065;DHT22;11197;53.110;8.468;2024-02-23T09:04:51;6.50;99.90
22065;DHT22;11197;53.110;8.468;2024-02-23T09:07:17;6.60;99.90
22065;DHT22;11197;53.110;8.468;2024-02-23T09:09:46;6.60;99.90
22065;DHT22;11197;53.110;8.468;2024-02-23T09:12:11;6.60;99.90
22065;DHT22;11197;53.110;8.468;2024-02-23T09:14:37;6.70;99.90
22065;DHT22;11197;53.110;8.468;2024-02-23T09:17:04;6.70;99.90
22065;DHT22;11197;53.110;8.468;2024-02-23T09:19:31;6.70;99.90
22065;DHT22;11197;53.110;8.468;2024-02-23T09:21:57;6.70;99.90
22065;DHT22;11197;53.110;8.468;2024-02-23T09:24:22;6.70;99.90
22065;DHT22;11197;53.110;8.468;2024-02-23T09:26:48;6.80;99.90
22065;DHT22;11197;53.110;8.468;2024-02-23T09:29:14;6.80;99.90
22065;DHT22;11197;53.110;8.468;2024-02-23T09:31:40;6.80;99.90
22065;DHT22;11197;53.110;8.468;2024-02-23T09:34:06;6.90;99.90
22065;DHT22;11197;53.110;8.468;2024-02-23T09:36:32;6.90;99.90
22065;DHT22;11197;53.110;8.468;2024-02-23T09:38:58;6.90;99.90
22065;DHT22;11197;53.110;8.468;2024-02-23T09:41:24;6.90;99.90
22065;DHT22;11197;53.110;8.468;2024-02-23T09:43:50;7.00;99.90
22065;DHT22;11197;53.110;8.468;2024-02-23T09:46:17;7.00;99.90
22065;DHT22;11197;53.110;8.468;2024-02-23T09:48:43;7.00;99.90
22065;DHT22;11197;53.110;8.468;2024-02-23T09:51:10;7.00;99.90
22065;DHT22;11197;53.110;8.468;2024-02-23T09:53:38;7.10;99.90
22065;DHT22;11197;53.110;8.468;2024-02-23T09:56:05;7.10;99.90
22065;DHT22;11197;53.110;8.468;2024-02-23T09:58:32;7.20;99.90
22065;DHT22;11197;53.110;8.468;2024-02-23T10:00:58;7.20;99.90
22065;DHT22;11197;53.110;8.468;2024-02-23T10:03:27;7.30;99.90
22065;DHT22;11197;53.110;8.468;2024-02-23T10:05:54;7.30;99.90
22065;DHT22;11197;53.110;8.468;2024-02-23T10:08:20;7.30;99.90
22065;DHT22;11197;53.110;8.468;2024-02-23T10:10:46;7.30;99.90
22065;DHT22;11197;53.110;8.468;2024-02-23T10:13:13;7.30;99.90
22065;DHT22;11197;53.110;8.468;2024-02-23T10:15:38;7.30;99.90
22065;DHT22;11197;53.110;8.468;2024-02-23T10:18:04;7.30;99.90
22065;DHT22;11197;53.110;8.468;2024-02-23T10:20:31;7.30;99.90
22065;DHT22;11197;53.110;8.468;2024-02-23T10:22:57;7.40;99.90
22065;DHT22;11197;53.110;8.468;2024-02-23T10:25:22;7.40;99.90
22065;DHT22;11197;53.110;8.468;2024-02-23T10:27:48;7.40;99.90
22065;DHT22;11197;53.110;8.468;2024-02-23T10:30:14;7.50;99.90
22065;DHT22;11197;53.110;8.468;2024-02-23T10:32:42;7.50;99.90
22065;DHT22;11197;53.110;8.468;2024-02-23T10:35:14;7.60;99.90
22065;DHT22;11197;53.110;8.468;2024-02-23T10:37:44;7.60;99.90
22065;DHT22;11197;53.110;8.468;2024-02-23T10:40:16;7.60;99.90
22065;DHT22;11197;53.110;8.468;2024-02-23T10:42:44;7.60;99.90
22065;DHT22;11197;53.110;8.468;2024-02-23T10:45:16;7.60;99.90
22065;DHT22;11197;53.110;8.468;2024-02-23T10:47:42;7.60;99.90
22065;DHT22;11197;53.110;8.468;2024-02-23T10:50:09;7.70;99.90
22065;DHT22;11197;53.110;8.468;2024-02-23T10:52:35;8.00;99.90
22065;DHT22;11197;53.110;8.468;2024-02-23T10:55:02;8.00;99.90
22065;DHT22;11197;53.110;8.468;2024-02-23T10:57:31;8.00;99.90
22065;DHT22;11197;53.110;8.468;2024-02-23T10:59:58;8.00;99.90
22065;DHT22;11197;53.110;8.468;2024-02-23T11:02:27;8.00;99.90
22065;DHT22;11197;53.110;8.468;2024-02-23T11:04:55;8.00;99.90
22065;DHT22;11197;53.110;8.468;2024-02-23T11:07:23;7.90;99.90
22065;DHT22;11197;53.110;8.468;2024-02-23T11:10:00;8.00;99.90
22065;DHT22;11197;53.110;8.468;2024-02-23T11:12:28;8.00;99.90
22065;DHT22;11197;53.110;8.468;2024-02-23T11:14:58;8.00;99.90
22065;DHT22;11197;53.110;8.468;2024-02-23T11:17:27;8.00;99.90
22065;DHT22;11197;53.110;8.468;2024-02-23T11:19:54;8.10;99.90
22065;DHT22;11197;53.110;8.468;2024-02-23T11:22:30;8.10;99.90
22065;DHT22;11197;53.110;8.468;2024-02-23T11:25:06;8.20;99.90
22065;DHT22;11197;53.110;8.468;2024-02-23T11:27:34;8.20;99.90
22065;DHT22;11197;53.110;8.468;2024-02-23T11:30:08;8.20;99.90
22065;DHT22;11197;53.110;8.468;2024-02-23T11:32:44;8.20;99.90
22065;DHT22;11197;53.110;8.468;2024-02-23T11:35:17;8.20;99.90
22065;DHT22;11197;53.110;8.468;2024-02-23T11:37:53;8.20;99.90
22065;DHT22;11197;53.110;8.468;2024-02-23T11:40:30;8.20;99.90
22065;DHT22;11197;53.110;8.468;2024-02-23T11:42:56;8.30;99.90
22065;DHT22;11197;53.110;8.468;2024-02-23T11:45:23;8.30;99.90
22065;DHT22;11197;53.110;8.468;2024-02-23T11:47:49;8.30;99.90
22065;DHT22;11197;53.110;8.468;2024-02-23T11:50:14;8.30;99.90
22065;DHT22;11197;53.110;8.468;2024-02-23T11:52:42;8.30;99.90
22065;DHT22;11197;53.110;8.468;2024-02-23T11:55:08;8.40;99.90
22065;DHT22;11197;53.110;8.468;2024-02-23T11:57:36;8.30;99.90
22065;DHT22;11197;53.110;8.468;2024-02-23T12:00:04;8.30;99.90
22065;DHT22;11197;53.110;8.468;2024-02-23T12:02:35;8.30;99.90
22065;DHT22;11197;53.110;8.468;2024-02-23T12:05:01;8.30;99.90
22065;DHT22;11197;53.110;8.468;2024-02-23T12:07:29;8.40;99.90
22065;DHT22;11197;53.110;8.468;2024-02-23T12:09:56;8.30;99.90
22065;DHT22;11197;53.110;8.468;2024-02-23T12:12:22;8.30;99.90
22065;DHT22;11197;53.110;8.468;2024-02-23T12:14:48;8.30;99.90
22065;DHT22;11197;53.110;8.468;2024-02-23T12:17:14;8.20;99.90
22065;DHT22;11197;53.110;8.468;2024-02-23T12:19:40;8.20;99.90
22065;DHT22;11197;53.110;8.468;2024-02-23T12:22:07;8.20;99.90
22065;DHT22;11197;53.110;8.468;2024-02-23T12:24:34;8.20;99.90
22065;DHT22;11197;53.110;8.468;2024-02-23T12:27:00;8.20;99.90
22065;DHT22;11197;53.110;8.468;2024-02-23T12:29:26;8.10;99.90
22065;DHT22;11197;53.110;8.468;2024-02-23T12:32:03;8.10;99.90
22065;DHT22;11197;53.110;8.468;2024-02-23T12:34:29;8.10;99.90
22065;DHT22;11197;53.110;8.468;2024-02-23T12:36:55;8.10;99.90
22065;DHT22;11197;53.110;8.468;2024-02-23T12:39:21;8.10;99.90
22065;DHT22;11197;53.110;8.468;2024-02-23T12:41:47;8.20;99.90
22065;DHT22;11197;53.110;8.468;2024-02-23T12:44:12;8.20;99.90
22065;DHT22;11197;53.110;8.468;2024-02-23T12:46:39;8.30;99.90
22065;DHT22;11197;53.110;8.468;2024-02-23T12:49:04;8.30;99.90
22065;DHT22;11197;53.110;8.468;2024-02-23T12:51:30;8.30;99.90
22065;DHT22;11197;53.110;8.468;2024-02-23T12:53:56;8.40;99.90
22065;DHT22;11197;53.110;8.468;2024-02-23T12:56:22;8.40;99.90
22065;DHT22;11197;53.110;8.468;2024-02-23T12:58:48;8.50;99.90
22065;DHT22;11197;53.110;8.468;2024-02-23T13:01:14;8.50;99.90
22065;DHT22;11197;53.110;8.468;2024-02-23T13:03:40;8.60;99.90
22065;DHT22;11197;53.110;8.468;2024-02-23T13:06:07;8.60;99.90
22065;DHT22;11197;53.110;8.468;2024-02-23T13:08:33;8.60;99.90
22065;DHT22;11197;53.110;8.468;2024-02-23T13:10:59;8.70;99.90
22065;DHT22;11197;53.110;8.468;2024-02-23T13:13:25;8.70;99.90
22065;DHT22;11197;53.110;8.468;2024-02-23T13:15:52;8.60;99.90
22065;DHT22;11197;53.110;8.468;2024-02-23T13:18:18;8.70;99.90
22065;DHT22;11197;53.110;8.468;2024-02-23T13:20:45;8.70;99.90
22065;DHT22;11197;53.110;8.468;2024-02-23T13:23:11;8.70;99.90
22065;DHT22;11197;53.110;8.468;2024-02-23T13:25:38;8.70;99.90
22065;DHT22;11197;53.110;8.468;2024-02-23T13:28:05;8.70;99.90
22065;DHT22;11197;53.110;8.468;2024-02-23T13:30:32;8.70;99.90
22065;DHT22;11197;53.110;8.468;2024-02-23T13:32:57;8.70;99.90
22065;DHT22;11197;53.110;8.468;2024-02-23T13:35:23;8.70;99.90
22065;DHT22;11197;53.110;8.468;2024-02-23T13:37:50;8.70;99.90
22065;DHT22;11197;53.110;8.468;2024-02-23T13:40:16;8.70;99.90
22065;DHT22;11197;53.110;8.468;2024-02-23T13:42:42;8.70;99.90
22065;DHT22;11197;53.110;8.468;2024-02-23T13:45:11;8.70;99.90
22065;DHT22;11197;53.110;8.468;2024-02-23T13:47:40;8.70;99.90
22065;DHT22;11197;53.110;8.468;2024-02-23T13:50:07;8.70;99.90
22065;DHT22;11197;53.110;8.468;2024-02-23T13:52:32;8.70;99.90
22065;DHT22;11197;53.110;8.468;2024-02-23T13:54:59;8.70;99.90
22065;DHT22;11197;53.110;8.468;2024-02-23T13:57:26;8.70;99.90
22065;DHT22;11197;53.110;8.468;2024-02-23T13:59:51;8.60;99.90
22065;DHT22;11197;53.110;8.468;2024-02-23T14:02:24;8.60;99.90
22065;DHT22;11197;53.110;8.468;2024-02-23T14:04:51;8.60;99.90
22065;DHT22;11197;53.110;8.468;2024-02-23T14:07:16;8.70;99.90
22065;DHT22;11197;53.110;8.468;2024-02-23T14:09:43;8.80;99.90
22065;DHT22;11197;53.110;8.468;2024-02-23T14:12:09;8.80;99.90
22065;DHT22;11197;53.110;8.468;2024-02-23T14:14:35;8.60;99.90
22065;DHT22;11197;53.110;8.468;2024-02-23T14:17:00;8.60;99.90
22065;DHT22;11197;53.110;8.468;2024-02-23T14:19:26;8.60;99.90
22065;DHT22;11197;53.110;8.468;2024-02-23T14:21:52;8.50;99.90
22065;DHT22;11197;53.110;8.468;2024-02-23T14:24:18;8.50;99.90
22065;DHT22;11197;53.110;8.468;2024-02-23T14:26:43;8.40;99.90
22065;DHT22;11197;53.110;8.468;2024-02-23T14:29:09;8.40;99.90
22065;DHT22;11197;53.110;8.468;2024-02-23T14:31:35;8.40;99.90
22065;DHT22;11197;53.110;8.468;2024-02-23T14:34:01;8.40;99.90
22065;DHT22;11197;53.110;8.468;2024-02-23T14:36:27;8.40;99.90
22065;DHT22;11197;53.110;8.468;2024-02-23T14:38:52;8.40;99.90
22065;DHT22;11197;53.110;8.468;2024-02-23T14:41:18;8.40;99.90
22065;DHT22;11197;53.110;8.468;2024-02-23T14:43:44;8.40;99.90
22065;DHT22;11197;53.110;8.468;2024-02-23T14:46:10;8.40;99.90
22065;DHT22;11197;53.110;8.468;2024-02-23T14:48:35;8.30;99.90
22065;DHT22;11197;53.110;8.468;2024-02-23T14:51:02;8.30;99.90
22065;DHT22;11197;53.110;8.468;2024-02-23T14:53:30;8.30;99.90
22065;DHT22;11197;53.110;8.468;2024-02-23T14:55:55;8.30;99.90
22065;DHT22;11197;53.110;8.468;2024-02-23T14:58:21;8.40;99.90
22065;DHT22;11197;53.110;8.468;2024-02-23T15:00:47;8.30;99.90
22065;DHT22;11197;53.110;8.468;2024-02-23T15:03:13;8.40;99.90
22065;DHT22;11197;53.110;8.468;2024-02-23T15:05:40;8.40;99.90
22065;DHT22;11197;53.110;8.468;2024-02-23T15:08:06;8.40;99.90
22065;DHT22;11197;53.110;8.468;2024-02-23T15:10:33;8.40;99.90
22065;DHT22;11197;53.110;8.468;2024-02-23T15:12:59;8.40;99.90
22065;DHT22;11197;53.110;8.468;2024-02-23T15:15:25;8.40;99.90
22065;DHT22;11197;53.110;8.468;2024-02-23T15:17:51;8.40;99.90
22065;DHT22;11197;53.110;8.468;2024-02-23T15:20:18;8.30;99.90
22065;DHT22;11197;53.110;8.468;2024-02-23T15:22:45;8.30;99.90
22065;DHT22;11197;53.110;8.468;2024-02-23T15:25:12;8.30;99.90
22065;DHT22;11197;53.110;8.468;2024-02-23T15:27:38;8.30;99.90
22065;DHT22;11197;53.110;8.468;2024-02-23T15:30:07;8.30;99.90
22065;DHT22;11197;53.110;8.468;2024-02-23T15:32:36;8.40;99.90
22065;DHT22;11197;53.110;8.468;2024-02-23T15:35:03;8.40;99.90
22065;DHT22;11197;53.110;8.468;2024-02-23T15:37:29;8.40;99.90
22065;DHT22;11197;53.110;8.468;2024-02-23T15:39:55;8.40;99.90